createdAt,value
2022-11-14T00:02:10.737Z,2.47
2022-11-14T00:04:37.208Z,2.15
2022-11-14T00:07:03.641Z,3.70
2022-11-14T00:09:30.041Z,3.28
2022-11-14T00:11:56.434Z,2.10
2022-11-14T00:14:25.885Z,2.45
2022-11-14T00:16:52.286Z,2.92
2022-11-14T00:19:18.748Z,2.55
2022-11-14T00:21:45.101Z,2.63
2022-11-14T00:24:11.532Z,2.80
2022-11-14T00:26:37.876Z,2.15
2022-11-14T00:29:04.370Z,2.40
2022-11-14T00:31:30.949Z,2.15
2022-11-14T00:33:57.473Z,2.17
2022-11-14T00:36:23.913Z,1.90
2022-11-14T00:38:52.469Z,2.30
2022-11-14T00:41:18.896Z,2.33
2022-11-14T00:43:45.283Z,2.53
2022-11-14T00:46:11.678Z,2.60
2022-11-14T00:48:38.113Z,2.78
2022-11-14T00:51:04.589Z,2.70
2022-11-14T00:53:31.010Z,3.17
2022-11-14T00:56:00.545Z,2.63
2022-11-14T00:58:27.143Z,2.90
2022-11-14T01:00:53.839Z,2.88
2022-11-14T01:03:20.311Z,2.90
2022-11-14T01:05:48.937Z,3.25
2022-11-14T01:08:16.556Z,2.70
2022-11-14T01:10:50.129Z,4.40
2022-11-14T01:13:17.954Z,4.35
2022-11-14T01:15:46.140Z,2.60
2022-11-14T01:18:13.776Z,2.97
2022-11-14T01:20:40.807Z,2.92
2022-11-14T01:23:07.948Z,2.42
2022-11-14T01:25:35.190Z,2.92
2022-11-14T01:28:01.807Z,2.90
2022-11-14T01:30:28.163Z,2.65
2022-11-14T01:32:54.545Z,2.90
2022-11-14T01:35:20.882Z,2.38
2022-11-14T01:37:47.374Z,2.80
2022-11-14T01:40:13.760Z,3.38
2022-11-14T01:42:40.139Z,4.25
2022-11-14T01:45:25.213Z,4.47
2022-11-14T01:47:51.649Z,3.70
2022-11-14T01:50:18.166Z,4.82
2022-11-14T01:52:45.876Z,4.57
2022-11-14T01:55:12.270Z,4.30
2022-11-14T01:57:40.851Z,3.90
2022-11-14T02:00:11.066Z,3.95
2022-11-14T02:02:38.391Z,3.67
2022-11-14T02:05:07.098Z,3.53
2022-11-14T02:07:36.397Z,3.70
2022-11-14T02:10:07.725Z,2.90
2022-11-14T02:12:34.269Z,2.83
2022-11-14T02:15:01.083Z,3.33
2022-11-14T02:17:30.564Z,3.00
2022-11-14T02:20:05.421Z,2.95
2022-11-14T02:22:32.278Z,2.33
2022-11-14T02:24:58.763Z,2.28
2022-11-14T02:27:25.141Z,2.75
2022-11-14T02:29:51.536Z,2.60
2022-11-14T02:32:17.902Z,2.55
2022-11-14T02:34:44.236Z,2.42
2022-11-14T02:37:10.617Z,2.30
2022-11-14T02:39:37.126Z,2.30
2022-11-14T02:42:03.709Z,2.90
2022-11-14T02:44:30.111Z,2.88
2022-11-14T02:46:56.466Z,2.75
2022-11-14T02:49:22.858Z,2.70
2022-11-14T02:51:49.222Z,2.55
2022-11-14T02:54:15.608Z,3.15
2022-11-14T02:56:41.996Z,2.75
2022-11-14T02:59:08.388Z,2.88
2022-11-14T03:01:37.015Z,2.95
2022-11-14T03:04:03.735Z,2.78
2022-11-14T03:06:30.097Z,2.60
2022-11-14T03:08:56.492Z,2.67
2022-11-14T03:11:22.916Z,3.45
2022-11-14T03:13:49.300Z,2.55
2022-11-14T03:16:15.830Z,2.03
2022-11-14T03:18:42.248Z,1.90
2022-11-14T03:21:16.209Z,1.73
2022-11-14T03:23:43.019Z,1.55
2022-11-14T03:26:10.066Z,1.20
2022-11-14T03:28:37.229Z,0.93
2022-11-14T03:31:04.885Z,1.10
2022-11-14T03:33:34.135Z,1.27
2022-11-14T03:36:00.694Z,1.00
2022-11-14T03:38:27.265Z,0.90
2022-11-14T03:40:53.866Z,1.00
2022-11-14T03:43:21.017Z,1.00
2022-11-14T03:45:47.852Z,0.60
2022-11-14T03:48:14.511Z,0.80
2022-11-14T03:50:41.529Z,0.90
2022-11-14T03:53:07.938Z,0.70
2022-11-14T03:55:34.526Z,0.70
2022-11-14T03:58:01.089Z,0.80
2022-11-14T04:00:29.051Z,0.90
2022-11-14T04:02:56.025Z,0.85
2022-11-14T04:05:23.006Z,0.77
2022-11-14T04:07:49.431Z,0.80
2022-11-14T04:10:16.087Z,1.35
2022-11-14T04:12:47.030Z,0.80
2022-11-14T04:17:40.205Z,0.70
2022-11-14T04:20:06.901Z,0.50
2022-11-14T04:22:33.338Z,0.80
2022-11-14T04:24:59.729Z,0.77
2022-11-14T04:27:26.152Z,0.55
2022-11-14T04:29:52.559Z,0.70
2022-11-14T04:32:21.951Z,0.70
2022-11-14T04:34:48.519Z,0.80
2022-11-14T04:37:14.904Z,0.80
2022-11-14T04:39:41.301Z,1.15
2022-11-14T04:42:07.657Z,0.60
2022-11-14T04:44:34.070Z,0.75
2022-11-14T04:47:00.497Z,0.55
2022-11-14T04:49:26.868Z,0.75
2022-11-14T04:51:53.253Z,0.70
2022-11-14T04:54:19.603Z,0.60
2022-11-14T04:56:46.019Z,0.60
2022-11-14T04:59:16.920Z,0.35
2022-11-14T05:01:46.101Z,0.60
2022-11-14T05:04:12.735Z,0.40
2022-11-14T05:06:39.331Z,0.45
2022-11-14T05:09:07.554Z,0.70
2022-11-14T05:11:34.058Z,0.50
2022-11-14T05:14:00.448Z,0.50
2022-11-14T05:16:26.887Z,0.70
2022-11-14T05:18:53.958Z,0.50
2022-11-14T05:21:20.522Z,0.40
2022-11-14T05:23:46.941Z,0.35
2022-11-14T05:26:15.175Z,0.35
2022-11-14T05:28:41.639Z,0.40
2022-11-14T05:31:08.965Z,0.30
2022-11-14T05:33:35.762Z,0.32
2022-11-14T05:36:05.847Z,0.50
2022-11-14T05:38:32.713Z,0.50
2022-11-14T05:40:59.538Z,2.05
2022-11-14T05:43:28.916Z,0.30
2022-11-14T05:45:59.102Z,0.38
2022-11-14T05:48:25.448Z,0.30
2022-11-14T05:50:55.560Z,0.30
2022-11-14T05:53:21.961Z,0.28
2022-11-14T05:55:48.343Z,0.28
2022-11-14T05:58:18.073Z,0.20
2022-11-14T06:00:52.003Z,0.20
2022-11-14T06:03:20.636Z,0.20
2022-11-14T06:05:47.041Z,0.20
2022-11-14T06:08:13.754Z,0.20
2022-11-14T06:10:40.124Z,0.10
2022-11-14T06:13:06.529Z,0.20
2022-11-14T06:15:32.918Z,0.22
2022-11-14T06:17:59.440Z,0.20
2022-11-14T06:20:25.837Z,0.20
2022-11-14T06:22:54.033Z,0.40
2022-11-14T06:25:20.442Z,0.30
2022-11-14T06:27:46.843Z,0.30
2022-11-14T06:30:13.415Z,0.30
2022-11-14T06:32:39.786Z,0.38
2022-11-14T06:35:08.348Z,0.40
2022-11-14T06:37:36.037Z,0.40
2022-11-14T06:40:03.738Z,0.47
2022-11-14T06:42:30.092Z,0.22
2022-11-14T06:44:56.456Z,0.25
2022-11-14T06:47:22.857Z,0.30
2022-11-14T06:49:50.986Z,0.20
2022-11-14T06:52:17.424Z,0.20
2022-11-14T06:54:43.784Z,0.20
2022-11-14T06:57:10.152Z,0.30
2022-11-14T06:59:36.523Z,0.20
2022-11-14T07:02:03.036Z,0.22
2022-11-14T07:04:29.445Z,0.30
2022-11-14T07:06:55.958Z,0.30
2022-11-14T07:09:22.444Z,0.32
2022-11-14T07:11:48.810Z,0.40
2022-11-14T07:14:15.212Z,0.35
2022-11-14T07:16:41.570Z,0.45
2022-11-14T07:19:09.772Z,0.20
2022-11-14T07:21:36.173Z,0.30
2022-11-14T07:24:02.644Z,0.43
2022-11-14T07:26:28.988Z,0.70
2022-11-14T07:29:00.792Z,0.30
2022-11-14T07:31:28.647Z,0.35
2022-11-14T07:33:55.023Z,0.20
2022-11-14T07:36:21.406Z,0.35
2022-11-14T07:38:47.760Z,0.30
2022-11-14T07:41:15.756Z,0.50
2022-11-14T07:43:42.658Z,0.30
2022-11-14T07:46:11.917Z,0.20
2022-11-14T07:48:38.287Z,0.30
2022-11-14T07:51:05.781Z,0.22
2022-11-14T07:53:32.617Z,0.20
2022-11-14T07:56:03.597Z,0.30
2022-11-14T08:01:00.215Z,0.20
2022-11-14T08:03:26.729Z,0.47
2022-11-14T08:05:59.652Z,0.40
2022-11-14T08:08:26.044Z,0.30
2022-11-14T08:10:55.549Z,0.50
2022-11-14T08:13:37.159Z,0.80
2022-11-14T08:16:09.132Z,0.50
2022-11-14T08:18:41.597Z,0.70
2022-11-14T08:21:08.335Z,0.30
2022-11-14T08:23:34.753Z,0.30
2022-11-14T08:26:01.170Z,0.38
2022-11-14T08:28:28.232Z,0.30
2022-11-14T08:30:59.022Z,0.35
2022-11-14T08:33:25.440Z,0.30
2022-11-14T08:35:51.873Z,0.40
2022-11-14T08:38:18.217Z,0.43
2022-11-14T08:40:44.589Z,0.20
2022-11-14T08:43:11.795Z,0.55
2022-11-14T08:45:38.158Z,0.60
2022-11-14T08:48:04.671Z,0.30
2022-11-14T08:50:31.530Z,0.30
2022-11-14T08:52:57.964Z,0.30
2022-11-14T08:55:24.461Z,0.30
2022-11-14T08:57:52.974Z,0.30
2022-11-14T09:00:20.773Z,0.30
2022-11-14T09:02:47.216Z,0.40
2022-11-14T09:05:13.764Z,0.30
2022-11-14T09:07:40.237Z,0.40
2022-11-14T09:10:07.099Z,0.40
2022-11-14T09:12:33.668Z,0.30
2022-11-14T09:15:00.241Z,0.28
2022-11-14T09:17:26.703Z,0.50
2022-11-14T09:19:53.187Z,0.60
2022-11-14T09:22:19.551Z,0.60
2022-11-14T09:24:47.747Z,0.57
2022-11-14T09:27:14.302Z,0.70
2022-11-14T09:29:40.687Z,0.80
2022-11-14T09:32:07.092Z,0.60
2022-11-14T09:34:33.644Z,0.65
2022-11-14T09:36:59.990Z,0.80
2022-11-14T09:39:26.379Z,0.57
2022-11-14T09:41:55.878Z,0.77
2022-11-14T09:44:22.234Z,0.80
2022-11-14T09:46:50.911Z,0.93
2022-11-14T09:49:29.890Z,0.77
2022-11-14T09:52:03.383Z,0.77
2022-11-14T09:54:39.260Z,0.95
2022-11-14T09:57:13.712Z,1.20
2022-11-14T09:59:40.223Z,0.88
2022-11-14T10:02:12.641Z,1.00
2022-11-14T10:04:42.078Z,0.75
2022-11-14T10:07:16.906Z,0.70
2022-11-14T10:10:04.491Z,0.90
2022-11-14T10:12:35.492Z,0.90
2022-11-14T10:17:40.746Z,0.88
2022-11-14T10:20:10.355Z,0.80
2022-11-14T10:22:45.757Z,0.93
2022-11-14T10:25:15.143Z,0.80
2022-11-14T10:27:45.977Z,0.50
2022-11-14T10:30:14.616Z,0.88
2022-11-14T10:32:44.093Z,1.00
2022-11-14T10:35:21.761Z,0.90
2022-11-14T10:37:48.149Z,0.80
2022-11-14T10:40:14.952Z,1.08
2022-11-14T10:42:43.099Z,1.05
2022-11-14T10:45:24.902Z,0.93
2022-11-14T10:47:57.592Z,0.98
2022-11-14T10:50:39.742Z,1.50
2022-11-14T10:53:13.977Z,0.90
2022-11-14T10:56:03.006Z,1.20
2022-11-14T10:58:26.645Z,1.13
2022-11-14T11:00:53.016Z,1.27
2022-11-14T11:03:40.204Z,1.13
2022-11-14T11:06:06.680Z,1.20
2022-11-14T11:08:59.480Z,1.30
2022-11-14T11:11:32.152Z,1.20
2022-11-14T11:14:00.180Z,1.20
2022-11-14T11:16:27.758Z,1.40
2022-11-14T11:18:54.189Z,1.05
2022-11-14T11:21:22.145Z,1.55
2022-11-14T11:23:48.606Z,1.17
2022-11-14T11:26:20.733Z,1.40
2022-11-14T11:29:01.157Z,1.40
2022-11-14T11:31:27.727Z,1.40
2022-11-14T11:33:55.006Z,1.15
2022-11-14T11:36:23.304Z,1.08
2022-11-14T11:38:50.037Z,1.25
2022-11-14T11:42:06.106Z,1.00
2022-11-14T11:44:18.505Z,1.15
2022-11-14T11:46:44.825Z,1.10
2022-11-14T11:49:15.484Z,1.25
2022-11-14T11:51:43.830Z,1.40
2022-11-14T11:54:20.692Z,1.00
2022-11-14T11:56:49.367Z,1.20
2022-11-14T11:59:33.973Z,1.45
2022-11-14T12:02:02.785Z,1.25
2022-11-14T12:04:31.353Z,1.45
2022-11-14T12:07:02.436Z,1.20
2022-11-14T12:10:08.949Z,1.70
2022-11-14T12:12:28.400Z,1.80
2022-11-14T12:15:16.879Z,2.00
2022-11-14T12:18:01.716Z,2.03
2022-11-14T12:20:59.544Z,1.90
2022-11-14T12:23:44.653Z,1.63
2022-11-14T12:26:10.949Z,1.35
2022-11-14T12:29:04.797Z,1.60
2022-11-14T12:31:33.152Z,2.10
2022-11-14T12:34:02.386Z,1.88
2022-11-14T12:36:33.571Z,1.95
2022-11-14T12:39:00.990Z,1.80
2022-11-14T12:41:32.422Z,2.20
2022-11-14T12:44:19.163Z,2.35
2022-11-14T12:47:04.509Z,1.90
2022-11-14T12:49:49.536Z,2.42
2022-11-14T12:52:34.768Z,2.15
2022-11-14T12:55:01.179Z,1.90
2022-11-14T12:57:48.051Z,2.58
2022-11-14T13:00:14.436Z,2.80
2022-11-14T13:02:46.674Z,2.50
2022-11-14T13:05:16.190Z,2.83
2022-11-14T13:07:53.512Z,2.40
2022-11-14T13:10:27.736Z,2.85
2022-11-14T13:13:16.555Z,2.30
2022-11-14T13:16:08.814Z,3.15
2022-11-14T13:18:54.040Z,3.28
2022-11-14T13:21:45.426Z,3.95
2022-11-14T13:24:21.184Z,4.15
2022-11-14T13:26:54.702Z,4.20
2022-11-14T13:29:36.408Z,3.90
2022-11-14T13:32:02.744Z,4.07
2022-11-14T13:34:47.895Z,4.07
2022-11-14T13:37:33.140Z,4.43
2022-11-14T13:40:14.777Z,4.43
2022-11-14T13:42:50.576Z,4.45
2022-11-14T13:45:16.977Z,4.25
2022-11-14T13:47:43.364Z,4.50
2022-11-14T13:50:14.318Z,4.70
2022-11-14T13:55:23.767Z,4.82
2022-11-14T13:58:08.935Z,4.47
2022-11-14T14:00:47.908Z,4.93
2022-11-14T14:03:33.400Z,4.80
2022-11-14T14:06:11.821Z,4.45
2022-11-14T14:08:38.208Z,5.05
2022-11-14T14:11:04.568Z,5.50
2022-11-14T14:13:55.093Z,4.85
2022-11-14T14:16:45.038Z,5.55
2022-11-14T14:19:29.830Z,5.18
2022-11-14T14:22:00.466Z,4.30
2022-11-14T14:24:47.145Z,5.10
2022-11-14T14:27:32.542Z,4.97
2022-11-14T14:30:07.019Z,5.22
2022-11-14T14:32:33.662Z,5.05
2022-11-14T14:35:00.771Z,5.28
2022-11-14T14:37:28.361Z,4.95
2022-11-14T14:39:58.608Z,5.15
2022-11-14T14:42:29.455Z,5.28
2022-11-14T14:44:58.807Z,4.53
2022-11-14T14:47:34.291Z,5.00
2022-11-14T14:50:02.099Z,4.82
2022-11-14T14:52:30.671Z,5.13
2022-11-14T14:54:57.418Z,4.88
2022-11-14T14:57:24.093Z,4.53
2022-11-14T15:00:05.366Z,5.25
2022-11-14T15:02:32.110Z,5.13
2022-11-14T15:04:59.630Z,4.68
2022-11-14T15:07:27.006Z,4.90
2022-11-14T15:09:56.204Z,5.10
2022-11-14T15:12:30.079Z,5.25
2022-11-14T15:14:57.241Z,5.20
2022-11-14T15:17:23.903Z,4.88
2022-11-14T15:19:51.996Z,5.22
2022-11-14T15:22:18.422Z,4.85
2022-11-14T15:24:45.242Z,5.00
2022-11-14T15:27:13.104Z,4.97
2022-11-14T15:29:46.641Z,4.30
2022-11-14T15:32:18.370Z,4.57
2022-11-14T15:35:04.696Z,5.82
2022-11-14T15:37:33.054Z,5.28
2022-11-14T15:40:19.826Z,4.88
2022-11-14T15:42:46.216Z,4.65
2022-11-14T15:45:26.261Z,4.53
2022-11-14T15:48:00.156Z,4.93
2022-11-14T15:50:35.855Z,5.30
2022-11-14T15:53:06.667Z,5.50
2022-11-14T15:55:33.036Z,5.30
2022-11-14T15:58:21.421Z,4.80
2022-11-14T16:00:51.741Z,4.80
2022-11-14T16:03:19.208Z,5.50
2022-11-14T16:05:48.764Z,5.20
2022-11-14T16:08:18.325Z,4.85
2022-11-14T16:10:44.903Z,4.85
2022-11-14T16:13:11.344Z,5.20
2022-11-14T16:15:37.816Z,5.10
2022-11-14T16:18:04.889Z,5.28
2022-11-14T16:20:36.073Z,5.43
2022-11-14T16:23:03.015Z,5.22
2022-11-14T16:25:32.989Z,5.57
2022-11-14T16:27:59.571Z,6.00
2022-11-14T16:30:26.440Z,6.20
2022-11-14T16:32:53.111Z,5.90
2022-11-14T16:35:20.903Z,5.82
2022-11-14T16:37:47.686Z,5.60
2022-11-14T16:40:15.396Z,6.22
2022-11-14T16:42:41.838Z,6.03
2022-11-14T16:45:08.482Z,6.53
2022-11-14T16:47:35.034Z,6.18
2022-11-14T16:50:01.772Z,6.00
2022-11-14T16:52:28.179Z,7.05
2022-11-14T16:54:54.623Z,6.32
2022-11-14T16:57:21.322Z,6.05
2022-11-14T16:59:48.011Z,6.38
2022-11-14T17:02:18.051Z,6.63
2022-11-14T17:04:44.930Z,5.82
2022-11-14T17:07:12.358Z,5.93
2022-11-14T17:09:39.130Z,5.55
2022-11-14T17:12:06.092Z,5.53
2022-11-14T17:14:32.619Z,5.55
2022-11-14T17:17:04.744Z,5.78
2022-11-14T17:19:31.190Z,6.28
2022-11-14T17:21:57.622Z,5.60
2022-11-14T17:24:28.559Z,6.00
2022-11-14T17:27:00.732Z,5.47
2022-11-14T17:29:27.109Z,5.20
2022-11-14T17:31:53.929Z,5.63
2022-11-14T17:34:20.298Z,5.70
2022-11-14T17:36:46.742Z,5.88
2022-11-14T17:39:13.153Z,6.28
2022-11-14T17:41:39.648Z,5.72
2022-11-14T17:44:08.762Z,5.53
2022-11-14T17:46:35.563Z,5.70
2022-11-14T17:49:02.079Z,6.10
2022-11-14T17:51:28.605Z,5.10
2022-11-14T17:53:55.199Z,5.55
2022-11-14T17:56:23.329Z,5.43
2022-11-14T17:58:51.456Z,6.05
2022-11-14T18:01:20.762Z,5.18
2022-11-14T18:03:47.284Z,5.30
2022-11-14T18:06:15.430Z,5.25
2022-11-14T18:08:42.067Z,5.18
2022-11-14T18:11:12.198Z,6.00
2022-11-14T18:13:38.971Z,5.70
2022-11-14T18:16:13.071Z,5.18
2022-11-14T18:18:39.515Z,5.20
2022-11-14T18:21:06.845Z,6.32
2022-11-14T18:23:33.253Z,5.07
2022-11-14T18:25:59.608Z,4.63
2022-11-14T18:28:25.973Z,5.20
2022-11-14T18:30:58.499Z,4.88
2022-11-14T18:33:24.937Z,5.80
2022-11-14T18:35:57.921Z,4.80
2022-11-14T18:38:24.465Z,5.38
2022-11-14T18:40:56.960Z,5.28
2022-11-14T18:43:24.027Z,5.75
2022-11-14T18:45:50.958Z,5.43
2022-11-14T18:48:17.519Z,5.07
2022-11-14T18:50:43.876Z,6.32
2022-11-14T18:53:10.214Z,5.25
2022-11-14T18:55:40.729Z,5.03
2022-11-14T18:58:09.100Z,4.97
2022-11-14T19:00:35.684Z,5.10
2022-11-14T19:03:05.980Z,4.80
2022-11-14T19:05:35.484Z,4.82
2022-11-14T19:08:02.094Z,5.25
2022-11-14T19:10:28.525Z,5.30
2022-11-14T19:12:54.960Z,5.28
2022-11-14T19:15:21.333Z,5.32
2022-11-14T19:17:48.458Z,4.90
2022-11-14T19:20:15.070Z,4.75
2022-11-14T19:22:41.629Z,4.70
2022-11-14T19:25:09.182Z,4.32
2022-11-14T19:27:35.813Z,4.72
2022-11-14T19:30:04.946Z,4.97
2022-11-14T19:32:31.584Z,4.28
2022-11-14T19:34:58.011Z,5.10
2022-11-14T19:37:24.401Z,5.10
2022-11-14T19:39:55.264Z,4.43
2022-11-14T19:42:21.836Z,4.10
2022-11-14T19:44:48.185Z,4.57
2022-11-14T19:47:18.596Z,4.28
2022-11-14T19:49:44.956Z,4.35
2022-11-14T19:52:11.769Z,4.63
2022-11-14T19:54:38.234Z,4.88
2022-11-14T19:57:04.592Z,7.22
2022-11-14T19:59:30.990Z,6.50
2022-11-14T20:01:57.534Z,6.00
2022-11-14T20:04:26.386Z,5.45
2022-11-14T20:06:52.964Z,4.70
2022-11-14T20:09:19.465Z,5.03
2022-11-14T20:11:46.058Z,4.70
2022-11-14T20:14:12.495Z,4.65
2022-11-14T20:16:39.172Z,5.47
2022-11-14T20:19:05.624Z,5.15
2022-11-14T20:21:37.503Z,4.60
2022-11-14T20:24:04.065Z,4.93
2022-11-14T20:26:30.486Z,5.07
2022-11-14T20:28:58.862Z,4.57
2022-11-14T20:31:27.290Z,5.13
2022-11-14T20:33:53.914Z,5.28
2022-11-14T20:36:21.721Z,4.85
2022-11-14T20:38:51.994Z,5.10
2022-11-14T20:41:18.936Z,5.20
2022-11-14T20:43:45.365Z,5.32
2022-11-14T20:46:13.237Z,4.70
2022-11-14T20:48:39.664Z,5.18
2022-11-14T20:51:07.755Z,5.47
2022-11-14T20:53:34.643Z,4.97
2022-11-14T20:56:01.156Z,4.78
2022-11-14T20:58:27.972Z,4.88
2022-11-14T21:00:54.583Z,5.20
2022-11-14T21:03:21.240Z,4.78
2022-11-14T21:05:47.750Z,5.63
2022-11-14T21:08:14.532Z,4.80
2022-11-14T21:10:47.606Z,5.30
2022-11-14T21:13:36.463Z,4.93
2022-11-14T21:16:07.361Z,5.75
2022-11-14T21:21:03.781Z,4.55
2022-11-14T21:23:30.307Z,4.78
2022-11-14T21:26:06.381Z,4.78
2022-11-14T21:28:34.015Z,4.68
2022-11-14T21:31:01.297Z,5.07
2022-11-14T21:33:31.368Z,5.97
2022-11-14T21:36:11.287Z,5.65
2022-11-14T21:38:47.424Z,5.40
2022-11-14T21:41:16.466Z,4.85
2022-11-14T21:43:43.670Z,5.18
2022-11-14T21:46:10.586Z,5.10
2022-11-14T21:48:41.701Z,5.40
2022-11-14T21:51:11.987Z,5.80
2022-11-14T21:53:39.175Z,5.07
2022-11-14T21:56:12.700Z,4.60
2022-11-14T21:58:39.441Z,6.00
2022-11-14T22:01:09.101Z,4.93
2022-11-14T22:03:54.428Z,5.25
2022-11-14T22:06:21.479Z,5.60
2022-11-14T22:08:48.091Z,5.53
2022-11-14T22:11:14.563Z,5.10
2022-11-14T22:13:41.260Z,5.32
2022-11-14T22:16:10.711Z,5.25
2022-11-14T22:18:37.443Z,4.72
2022-11-14T22:21:04.185Z,4.60
2022-11-14T22:23:31.056Z,5.13
2022-11-14T22:25:58.670Z,4.80
2022-11-14T22:28:25.664Z,5.47
2022-11-14T22:31:02.115Z,5.20
2022-11-14T22:33:35.752Z,5.68
2022-11-14T22:36:03.066Z,5.10
2022-11-14T22:38:33.701Z,4.85
2022-11-14T22:41:00.536Z,5.55
2022-11-14T22:43:29.373Z,5.07
2022-11-14T22:45:56.533Z,4.88
2022-11-14T22:48:24.171Z,5.47
2022-11-14T22:51:16.733Z,5.25
2022-11-14T22:53:45.633Z,4.90
2022-11-14T22:56:14.006Z,5.05
2022-11-14T22:58:41.566Z,5.30
2022-11-14T23:01:12.395Z,4.57
2022-11-14T23:03:40.113Z,4.82
2022-11-14T23:06:08.020Z,5.32
2022-11-14T23:08:34.758Z,5.10
2022-11-14T23:11:08.585Z,5.53
2022-11-14T23:13:38.347Z,4.95
2022-11-14T23:16:05.177Z,4.93
2022-11-14T23:18:31.533Z,5.72
2022-11-14T23:21:02.862Z,5.72
2022-11-14T23:23:29.584Z,5.55
2022-11-14T23:25:56.139Z,5.20
2022-11-14T23:28:22.606Z,5.22
2022-11-14T23:30:49.102Z,5.03
2022-11-14T23:33:15.498Z,5.10
2022-11-14T23:35:42.374Z,5.38
2022-11-14T23:38:08.745Z,4.97
2022-11-14T23:40:37.132Z,4.78
2022-11-14T23:43:03.501Z,4.72
2022-11-14T23:45:29.852Z,4.88
2022-11-14T23:47:56.290Z,5.22
2022-11-14T23:50:22.684Z,4.50
2022-11-14T23:52:49.116Z,4.40
2022-11-14T23:55:15.609Z,4.80
2022-11-14T23:57:41.994Z,5.40
